Terminal Aerodrome Forecast
Issued by NWS

Home | Current Version | Previous Version | Text Only | Print | Product List | Glossary On
Versions: 1 2 3 4 5 6 7 8 9 10 11 12 13 14
000
FTUS46 KSTO 242300
TAFSMF
TAF
KSMF 242320Z 2500/2524 18010KT P6SM BKN100 BKN200
     FM251200 16008KT P6SM VCSH BKN060 BKN120
     FM251800 19010G15KT P6SM -SHRA BKN050=

USA.gov is the U.S. government's official web portal to all federal, state and local government web resources and services.